Time;durP1;ratioP1;P1;durP2;ratioP2;P2;SDS_P1;SDS_P2;PMS_P1;PMS_P2;Temp;Humidity;BMP_temperature;BMP_pressure;BME280_temperature;BME280_humidity;BME280_pressure;Samples;Min_cycle;Max_cycle;Signal;HPM_P1;HPM_P2
2022/06/03 00:00:50;;;;;;;5.25;4.75;;;21.70;99.90;;;;;;5002048;28;20571;-73
2022/06/03 00:03:34;;;;;;;4.85;4.45;;;21.60;99.90;;;;;;5002152;28;20216;-73
2022/06/03 00:06:25;;;;;;;5.03;4.68;;;21.70;99.90;;;;;;5004880;28;20347;-73
2022/06/03 00:09:12;;;;;;;5.50;5.10;;;21.70;99.90;;;;;;5004717;28;20446;-73
2022/06/03 00:12:14;;;;;;;5.57;5.05;;;21.70;99.90;;;;;;5000097;28;20228;-73
2022/06/03 00:15:02;;;;;;;5.00;4.60;;;21.70;99.90;;;;;;5002952;28;20239;-74
2022/06/03 00:17:44;;;;;;;5.45;4.95;;;21.70;99.90;;;;;;5002783;28;20200;-73
2022/06/03 00:20:24;;;;;;;5.28;4.78;;;21.70;99.90;;;;;;5001941;28;20219;-74
2022/06/03 00:23:31;;;;;;;5.60;5.20;;;21.60;99.90;;;;;;5013197;28;20231;-75
2022/06/03 00:26:17;;;;;;;5.60;5.20;;;21.60;99.90;;;;;;5005311;28;20217;-73
2022/06/03 00:29:01;;;;;;;5.47;4.88;;;21.60;99.90;;;;;;5007176;28;20211;-73
2022/06/03 00:32:00;;;;;;;4.82;4.47;;;21.50;99.90;;;;;;5000763;28;20248;-73
2022/06/03 00:34:53;;;;;;;5.20;4.80;;;21.50;99.90;;;;;;5004143;28;20220;-74
2022/06/03 00:37:31;;;;;;;5.15;4.65;;;21.40;99.90;;;;;;5003336;28;20646;-73
2022/06/03 00:40:07;;;;;;;4.35;4.05;;;21.40;99.90;;;;;;5002759;28;20618;-72
2022/06/03 00:42:55;;;;;;;4.53;4.22;;;21.40;99.90;;;;;;4999639;28;20196;-74
2022/06/03 00:45:46;;;;;;;4.35;4.05;;;21.40;99.90;;;;;;4996338;28;20216;-73
2022/06/03 00:48:34;;;;;;;4.38;4.07;;;21.40;99.90;;;;;;4989439;28;20200;-73
2022/06/03 00:51:16;;;;;;;4.63;4.22;;;21.40;99.90;;;;;;4998637;28;20213;-73
2022/06/03 00:54:14;;;;;;;4.90;4.50;;;21.40;99.90;;;;;;5002287;28;20286;-72
2022/06/03 00:57:15;;;;;;;6.63;4.68;;;21.40;99.90;;;;;;5001223;28;20224;-74
2022/06/03 01:00:05;;;;;;;5.28;4.88;;;21.40;99.90;;;;;;4995896;28;20224;-73
2022/06/03 01:02:55;;;;;;;4.93;4.43;;;21.40;99.90;;;;;;5001696;28;20703;-73
2022/06/03 01:05:32;;;;;;;5.03;4.53;;;21.30;99.90;;;;;;4998710;28;20231;-73
2022/06/03 01:08:10;;;;;;;5.00;4.68;;;21.30;99.90;;;;;;5000195;28;20208;-73
2022/06/03 01:10:53;;;;;;;4.95;4.55;;;21.30;99.90;;;;;;5000152;28;20232;-73
2022/06/03 01:13:46;;;;;;;5.07;4.68;;;21.30;99.90;;;;;;4997250;28;20225;-73
2022/06/03 01:16:32;;;;;;;4.70;4.30;;;21.30;99.90;;;;;;5014028;28;20224;-73
2022/06/03 01:19:09;;;;;;;5.40;4.57;;;21.30;99.90;;;;;;5001083;28;20200;-74
2022/06/03 01:21:46;;;;;;;4.75;4.35;;;21.30;99.90;;;;;;4996353;28;20224;-73
2022/06/03 01:24:51;;;;;;;4.28;3.97;;;21.30;99.90;;;;;;5001893;28;20234;-73
2022/06/03 01:27:52;;;;;;;4.93;4.53;;;21.30;99.90;;;;;;4987310;28;20216;-73
2022/06/03 01:30:24;;;;;;;4.53;4.22;;;21.30;99.90;;;;;;4999616;28;20200;-74
2022/06/03 01:33:21;;;;;;;4.82;4.43;;;21.20;99.90;;;;;;5004032;28;20580;-73
2022/06/03 01:36:09;;;;;;;4.50;4.20;;;21.20;99.90;;;;;;5001715;28;20231;-73
2022/06/03 01:38:54;;;;;;;5.00;4.57;;;21.10;99.90;;;;;;5002531;28;20228;-73
2022/06/03 01:41:47;;;;;;;4.10;3.80;;;21.10;99.90;;;;;;4999939;28;20193;-74
2022/06/03 01:44:58;;;;;;;4.13;3.83;;;21.10;99.90;;;;;;5002709;28;20228;-73
2022/06/03 01:48:02;;;;;;;4.20;3.90;;;21.10;99.90;;;;;;4995495;28;20231;-74
2022/06/03 01:50:50;;;;;;;4.32;3.92;;;21.10;99.90;;;;;;5000121;28;20610;-73
2022/06/03 01:53:59;;;;;;;4.68;4.28;;;21.10;99.90;;;;;;5003765;28;20220;-73
2022/06/03 01:56:57;;;;;;;4.65;4.25;;;21.10;99.90;;;;;;4959927;28;20209;-73
2022/06/03 02:00:03;;;;;;;4.00;3.70;;;21.10;99.90;;;;;;5003467;28;20242;-73
2022/06/03 02:02:48;;;;;;;4.30;4.00;;;21.10;99.90;;;;;;5005337;28;20223;-74
2022/06/03 02:05:41;;;;;;;4.20;3.90;;;21.10;99.90;;;;;;5000442;28;20556;-73
2022/06/03 02:08:37;;;;;;;4.20;3.80;;;21.10;99.90;;;;;;5016132;28;20208;-73
2022/06/03 02:11:36;;;;;;;4.10;3.88;;;21.10;99.90;;;;;;4998763;28;20255;-73
2022/06/03 02:14:36;;;;;;;4.40;4.00;;;21.20;99.90;;;;;;4997292;28;20227;-73
2022/06/03 02:17:36;;;;;;;5.18;4.78;;;21.10;99.90;;;;;;5002600;28;20200;-74
2022/06/03 02:20:46;;;;;;;4.78;4.30;;;21.00;99.90;;;;;;4989319;28;20651;-74
2022/06/03 02:23:48;;;;;;;4.47;4.07;;;20.90;99.90;;;;;;4999125;28;20224;-74
2022/06/03 02:26:42;;;;;;;4.18;3.83;;;20.90;99.90;;;;;;5002381;28;20196;-73
2022/06/03 02:32:49;;;;;;;4.18;3.88;;;20.80;99.90;;;;;;4999489;28;20283;-73
2022/06/03 02:35:34;;;;;;;4.03;3.72;;;20.90;99.90;;;;;;4998689;28;20231;-73
2022/06/03 02:38:43;;;;;;;4.10;3.80;;;20.90;99.90;;;;;;5003204;28;20247;-73
2022/06/03 02:41:36;;;;;;;3.75;3.45;;;20.90;99.90;;;;;;4984073;28;20201;-73
2022/06/03 02:44:43;;;;;;;3.90;3.60;;;20.90;99.90;;;;;;4992331;28;20232;-73
2022/06/03 02:47:39;;;;;;;4.18;3.83;;;20.90;99.90;;;;;;4996944;28;20229;-74
2022/06/03 02:50:40;;;;;;;4.60;4.30;;;20.90;99.90;;;;;;4982721;28;20204;-74
2022/06/03 02:53:58;;;;;;;4.10;3.80;;;20.90;99.90;;;;;;4998521;28;20250;-73
2022/06/03 02:56:42;;;;;;;4.30;3.97;;;20.80;99.90;;;;;;4921666;29;20659;-73
2022/06/03 02:59:38;;;;;;;4.13;3.83;;;20.80;99.90;;;;;;4923078;29;20227;-73
2022/06/03 03:02:47;;;;;;;4.20;3.90;;;20.80;99.90;;;;;;4943725;28;20866;-73
2022/06/03 03:05:54;;;;;;;3.95;3.65;;;20.70;99.90;;;;;;4984928;28;20655;-73
2022/06/03 03:08:56;;;;;;;4.53;4.22;;;20.80;99.90;;;;;;4960522;28;20221;-73
2022/06/03 03:11:58;;;;;;;4.10;3.80;;;20.80;99.90;;;;;;4959265;28;20198;-73
2022/06/03 03:14:49;;;;;;;4.30;4.00;;;20.80;99.90;;;;;;4994743;28;20668;-73
2022/06/03 03:17:46;;;;;;;4.07;3.78;;;20.70;99.90;;;;;;4982703;28;20559;-73
2022/06/03 03:20:54;;;;;;;4.63;4.22;;;20.70;99.90;;;;;;4993458;28;20200;-73
2022/06/03 03:23:48;;;;;;;4.47;4.07;;;20.60;99.90;;;;;;4999494;28;20234;-73
2022/06/03 03:26:27;;;;;;;4.03;3.72;;;20.60;99.90;;;;;;4996951;28;20208;-73
2022/06/03 03:29:21;;;;;;;3.97;3.67;;;20.60;99.90;;;;;;5000026;28;20582;-73
2022/06/03 03:32:07;;;;;;;4.20;3.90;;;20.60;99.90;;;;;;5004826;28;20252;-73
2022/06/03 03:35:03;;;;;;;3.95;3.65;;;20.60;99.90;;;;;;5004314;28;20707;-73
2022/06/03 03:38:09;;;;;;;4.13;3.83;;;20.60;99.90;;;;;;5003971;28;20401;-73
2022/06/03 03:41:10;;;;;;;4.05;3.65;;;20.60;99.90;;;;;;5001454;28;20269;-74
2022/06/03 03:44:21;;;;;;;3.88;3.58;;;20.60;99.90;;;;;;4998180;28;20224;-74
2022/06/03 03:47:18;;;;;;;3.60;3.30;;;20.60;99.90;;;;;;4998141;28;20215;-73
2022/06/03 03:50:23;;;;;;;4.00;3.70;;;20.60;99.90;;;;;;5004485;28;20235;-73
2022/06/03 03:53:17;;;;;;;4.10;3.80;;;20.50;99.90;;;;;;5010422;28;20236;-75
2022/06/03 03:56:16;;;;;;;3.65;3.40;;;20.60;99.90;;;;;;5004792;28;20219;-74
2022/06/03 03:59:18;;;;;;;4.25;3.95;;;20.50;99.90;;;;;;5004953;28;20220;-73
2022/06/03 04:02:38;;;;;;;4.28;3.88;;;20.50;99.90;;;;;;5004952;28;20192;-73
2022/06/03 04:05:40;;;;;;;4.22;3.83;;;20.50;99.90;;;;;;4998714;28;20220;-74
2022/06/03 04:08:52;;;;;;;4.15;3.75;;;20.50;99.90;;;;;;5001737;28;20192;-74
2022/06/03 04:11:54;;;;;;;4.03;3.72;;;20.40;99.90;;;;;;4989582;28;20251;-73
2022/06/03 04:15:02;;;;;;;4.70;4.38;;;20.50;99.90;;;;;;4999972;28;21046;-73
2022/06/03 04:18:06;;;;;;;4.30;3.90;;;20.50;99.90;;;;;;4981643;28;20200;-73
2022/06/03 04:21:06;;;;;;;3.90;3.60;;;20.50;99.90;;;;;;5002034;28;20225;-73
2022/06/03 04:23:58;;;;;;;4.20;3.90;;;20.60;99.90;;;;;;5000068;28;20228;-73
2022/06/03 04:26:58;;;;;;;3.80;3.45;;;20.70;99.90;;;;;;4999590;28;20220;-73
2022/06/03 04:30:02;;;;;;;4.30;3.90;;;20.70;99.90;;;;;;5001890;28;20212;-73
2022/06/03 04:33:14;;;;;;;4.28;3.88;;;20.80;99.90;;;;;;5003843;28;20274;-74
2022/06/03 04:36:23;;;;;;;4.00;3.70;;;20.80;99.90;;;;;;5004461;28;20227;-73
2022/06/03 04:39:36;;;;;;;4.00;3.70;;;20.90;99.90;;;;;;4981682;28;20204;-73
2022/06/03 04:42:39;;;;;;;3.90;3.60;;;20.90;99.90;;;;;;5001572;28;20215;-73
2022/06/03 04:45:44;;;;;;;4.80;4.05;;;21.00;99.90;;;;;;5015977;28;20211;-74
2022/06/03 04:49:07;;;;;;;4.20;3.70;;;21.00;99.90;;;;;;5006880;28;20208;-73
2022/06/03 04:52:10;;;;;;;3.95;3.65;;;21.10;99.90;;;;;;5001052;28;20692;-73
2022/06/03 04:55:24;;;;;;;4.38;4.00;;;21.10;99.90;;;;;;4999240;28;20236;-73
2022/06/03 04:58:36;;;;;;;4.63;3.60;;;21.10;99.90;;;;;;5001157;28;20592;-73
2022/06/03 05:01:41;;;;;;;4.38;3.97;;;21.10;99.90;;;;;;5000746;28;20200;-73
2022/06/03 05:04:46;;;;;;;4.40;4.10;;;21.10;99.90;;;;;;5000837;28;20772;-73
2022/06/03 05:07:53;;;;;;;3.85;3.55;;;21.20;99.90;;;;;;4994444;28;20231;-73
2022/06/03 05:10:58;;;;;;;4.38;4.07;;;21.20;99.90;;;;;;5000648;28;20200;-73
2022/06/03 05:14:04;;;;;;;4.60;4.20;;;21.20;99.90;;;;;;4999716;28;20226;-73
2022/06/03 05:17:03;;;;;;;4.85;4.35;;;21.20;99.90;;;;;;4947088;28;20221;-73
2022/06/03 05:20:13;;;;;;;4.38;3.95;;;21.40;99.90;;;;;;5001156;28;20212;-73
2022/06/03 05:23:05;;;;;;;4.30;4.00;;;21.50;99.90;;;;;;4998024;28;20230;-73
2022/06/03 05:26:03;;;;;;;4.55;4.18;;;21.70;99.90;;;;;;5000502;28;20204;-73
2022/06/03 05:28:57;;;;;;;4.55;4.25;;;21.80;99.90;;;;;;4974125;28;20234;-73
2022/06/03 05:32:07;;;;;;;5.05;4.57;;;21.90;99.90;;;;;;4988497;28;20344;-73
2022/06/03 05:35:01;;;;;;;4.70;4.38;;;22.10;99.90;;;;;;4987547;28;20727;-73
2022/06/03 05:37:59;;;;;;;4.63;4.22;;;22.20;99.90;;;;;;5002743;28;20286;-76
2022/06/03 05:40:50;;;;;;;4.53;4.03;;;22.30;99.90;;;;;;4993924;28;20201;-75
2022/06/03 05:43:44;;;;;;;4.85;4.45;;;22.30;99.90;;;;;;4989232;28;20228;-76
2022/06/03 05:46:18;;;;;;;4.15;3.85;;;22.30;99.90;;;;;;4997124;28;20204;-75
2022/06/03 05:49:09;;;;;;;4.50;4.20;;;22.30;99.90;;;;;;4995258;28;20229;-75
2022/06/03 05:51:49;;;;;;;4.20;3.95;;;22.30;99.90;;;;;;4994917;28;20711;-75
2022/06/03 05:54:27;;;;;;;4.43;4.03;;;22.40;99.90;;;;;;4990574;28;20232;-75
2022/06/03 05:57:07;;;;;;;4.78;4.20;;;22.40;99.90;;;;;;4996783;28;20709;-75
2022/06/03 05:59:51;;;;;;;4.30;4.00;;;22.50;99.90;;;;;;5001092;28;20226;-76
2022/06/03 06:02:26;;;;;;;4.80;4.45;;;22.60;99.90;;;;;;4999119;28;20864;-75
2022/06/03 06:05:11;;;;;;;4.47;4.15;;;22.70;99.90;;;;;;4993919;28;20215;-74
2022/06/03 06:07:50;;;;;;;4.57;4.18;;;22.80;99.90;;;;;;4998416;28;20228;-75
2022/06/03 06:10:31;;;;;;;4.68;4.25;;;22.80;99.90;;;;;;4996683;28;20578;-75
2022/06/03 06:13:39;;;;;;;4.18;3.78;;;22.70;99.90;;;;;;4997923;28;20243;-75
2022/06/03 06:16:11;;;;;;;4.03;3.72;;;22.70;99.90;;;;;;4955793;28;20206;-75
2022/06/03 06:18:56;;;;;;;3.75;3.45;;;22.60;99.90;;;;;;4986114;28;20228;-74
2022/06/03 06:21:44;;;;;;;4.15;3.85;;;22.60;99.90;;;;;;4995470;28;20204;-76
2022/06/03 06:24:16;;;;;;;4.03;3.70;;;22.70;99.90;;;;;;4994515;28;20606;-75
2022/06/03 06:27:22;;;;;;;3.78;3.47;;;22.70;99.90;;;;;;4997840;28;20440;-76
2022/06/03 06:30:29;;;;;;;4.07;3.78;;;22.70;99.90;;;;;;4963594;28;20646;-79
2022/06/03 06:33:15;;;;;;;3.65;3.45;;;22.60;99.90;;;;;;4995666;28;20228;-77
2022/06/03 06:36:25;;;;;;;3.65;3.42;;;22.50;99.90;;;;;;4993955;28;20680;-76
2022/06/03 06:39:04;;;;;;;3.80;3.50;;;22.50;99.90;;;;;;4998566;28;20220;-75
2022/06/03 06:41:46;;;;;;;4.18;3.65;;;22.60;99.90;;;;;;4997592;28;20203;-76
2022/06/03 06:44:32;;;;;;;4.13;3.75;;;22.70;99.90;;;;;;4996784;28;20311;-75
2022/06/03 06:47:07;;;;;;;4.00;3.70;;;22.70;99.90;;;;;;4994730;28;20232;-75
2022/06/03 06:49:38;;;;;;;3.70;3.40;;;22.80;99.90;;;;;;4992236;28;20223;-76
2022/06/03 06:52:38;;;;;;;4.43;4.03;;;22.80;99.90;;;;;;4994442;28;20204;-76
2022/06/03 06:55:15;;;;;;;4.28;3.88;;;22.80;99.90;;;;;;4992368;28;20211;-77
2022/06/03 06:57:46;;;;;;;4.80;4.40;;;22.70;99.90;;;;;;4998399;28;21564;-78
2022/06/03 07:00:20;;;;;;;4.55;4.15;;;22.70;99.90;;;;;;4998200;28;20235;-78
2022/06/03 07:02:53;;;;;;;4.05;3.75;;;22.70;99.90;;;;;;4999845;28;20681;-78
2022/06/03 07:05:26;;;;;;;4.22;3.83;;;22.80;99.90;;;;;;5000260;28;20225;-77
2022/06/03 07:08:00;;;;;;;4.70;4.30;;;22.80;99.90;;;;;;5000626;28;20283;-77
2022/06/03 07:10:29;;;;;;;4.22;3.92;;;22.90;99.90;;;;;;5005539;28;20232;-78
2022/06/03 07:13:05;;;;;;;4.30;3.90;;;23.00;99.90;;;;;;5007072;28;20231;-76
2022/06/03 07:15:51;;;;;;;4.57;4.22;;;23.10;99.90;;;;;;4996447;28;20230;-76
2022/06/03 07:21:33;;;;;;;4.25;3.85;;;23.40;99.90;;;;;;4961352;28;20835;-79
2022/06/03 07:24:05;;;;;;;4.50;4.10;;;23.30;99.90;;;;;;5002015;28;20227;-78
2022/06/03 07:26:36;;;;;;;4.18;3.88;;;23.20;99.90;;;;;;5004657;28;20215;-74
2022/06/03 07:29:15;;;;;;;4.82;4.30;;;23.20;99.90;;;;;;4997839;28;20371;-75
2022/06/03 07:31:48;;;;;;;5.88;4.63;;;23.00;99.90;;;;;;5000534;28;20740;-75
2022/06/03 07:34:19;;;;;;;4.82;4.43;;;23.00;99.90;;;;;;4997976;28;20833;-78
2022/06/03 07:36:51;;;;;;;4.00;3.58;;;22.90;99.90;;;;;;5000847;28;20839;-76
2022/06/03 07:39:44;;;;;;;4.72;4.35;;;23.00;99.90;;;;;;5002324;28;20327;-75
2022/06/03 07:42:25;;;;;;;4.13;3.83;;;22.90;99.90;;;;;;4997753;28;20204;-76
2022/06/03 07:45:04;;;;;;;5.32;4.93;;;22.90;99.90;;;;;;5005372;28;20583;-78
2022/06/03 07:47:33;;;;;;;4.53;4.13;;;22.90;99.90;;;;;;5005117;28;20192;-75
2022/06/03 07:50:03;;;;;;;4.32;4.03;;;22.90;99.90;;;;;;5000900;28;20235;-76
2022/06/03 07:52:37;;;;;;;4.18;3.80;;;22.90;99.90;;;;;;4997084;28;20211;-76
2022/06/03 07:55:11;;;;;;;4.18;3.88;;;22.90;99.90;;;;;;4995205;28;20223;-76
2022/06/03 07:57:39;;;;;;;3.90;3.60;;;22.90;99.90;;;;;;4993554;28;20207;-77
2022/06/03 08:00:15;;;;;;;4.43;4.13;;;22.90;99.90;;;;;;5001836;28;20231;-77
2022/06/03 08:02:43;;;;;;;3.80;3.50;;;23.00;99.90;;;;;;5003469;28;20211;-75
2022/06/03 08:05:13;;;;;;;4.10;3.80;;;23.00;99.90;;;;;;4999170;28;20674;-76
2022/06/03 08:13:15;;;;;;;4.22;3.83;;;23.20;99.90;;;;;;5002510;28;20235;-77
2022/06/03 08:15:53;;;;;;;4.28;3.88;;;23.30;99.90;;;;;;4996399;28;20419;-76
2022/06/03 08:18:22;;;;;;;4.10;3.72;;;23.40;99.90;;;;;;4988271;28;20200;-75
2022/06/03 08:20:52;;;;;;;4.63;4.22;;;23.50;99.90;;;;;;4993274;28;20200;-75
2022/06/03 08:23:21;;;;;;;4.10;3.80;;;23.60;99.90;;;;;;4994211;28;20739;-75
2022/06/03 08:25:52;;;;;;;4.95;4.55;;;23.70;99.90;;;;;;4988972;28;20212;-74
2022/06/03 08:28:22;;;;;;;4.20;3.90;;;23.80;99.90;;;;;;4996200;28;20203;-74
2022/06/03 08:30:53;;;;;;;7.13;4.80;;;23.90;99.90;;;;;;5002105;28;20675;-74
2022/06/03 08:33:31;;;;;;;4.72;4.32;;;24.10;99.90;;;;;;5003715;28;20513;-74
2022/06/03 08:35:59;;;;;;;4.63;4.32;;;24.30;99.90;;;;;;5003647;28;20279;-75
2022/06/03 08:38:32;;;;;;;4.47;4.07;;;24.50;99.90;;;;;;5004611;28;20706;-75
2022/06/03 08:41:14;;;;;;;4.80;4.40;;;24.70;99.90;;;;;;4998548;28;20203;-75
2022/06/03 08:43:55;;;;;;;5.03;4.55;;;25.10;99.90;;;;;;4999196;28;20287;-73
2022/06/03 08:46:27;;;;;;;6.10;5.55;;;25.40;99.90;;;;;;4997618;28;20211;-74
2022/06/03 08:49:01;;;;;;;5.32;4.85;;;25.50;99.90;;;;;;5008339;28;20302;-73
2022/06/03 08:51:36;;;;;;;5.30;4.90;;;25.40;99.90;;;;;;5001586;28;20236;-74
2022/06/03 08:54:07;;;;;;;6.35;5.70;;;25.40;99.90;;;;;;4999192;28;20247;-75
2022/06/03 08:56:38;;;;;;;5.72;5.25;;;25.40;99.90;;;;;;5000319;28;20280;-73
2022/06/03 08:59:13;;;;;;;5.35;4.90;;;25.40;99.90;;;;;;4997894;28;20710;-74
2022/06/03 09:01:46;;;;;;;6.30;5.70;;;25.40;99.90;;;;;;4991025;28;20231;-73
2022/06/03 09:04:23;;;;;;;5.40;5.00;;;25.20;99.90;;;;;;4993640;28;20224;-75
2022/06/03 09:06:58;;;;;;;6.10;5.65;;;25.10;99.90;;;;;;5013726;28;20203;-73
2022/06/03 09:09:31;;;;;;;5.40;4.90;;;25.20;99.90;;;;;;4996688;28;20303;-73
2022/06/03 09:12:08;;;;;;;5.93;5.43;;;25.40;99.90;;;;;;4992039;28;20662;-72
2022/06/03 09:14:36;;;;;;;5.93;5.40;;;25.50;99.90;;;;;;4993352;28;20235;-74
2022/06/03 09:17:12;;;;;;;6.15;5.55;;;25.60;99.90;;;;;;4990586;28;20196;-75
2022/06/03 09:19:44;;;;;;;5.70;5.30;;;25.70;99.90;;;;;;4988775;28;20219;-74
2022/06/03 09:22:15;;;;;;;6.85;5.53;;;25.80;99.90;;;;;;4991875;28;20741;-73
2022/06/03 09:24:44;;;;;;;6.25;5.75;;;26.00;99.90;;;;;;4988320;28;20286;-74
2022/06/03 09:27:13;;;;;;;6.35;5.78;;;26.10;99.90;;;;;;4987669;28;20212;-75
2022/06/03 09:29:46;;;;;;;6.50;5.88;;;26.20;99.90;;;;;;4990390;28;20220;-75
2022/06/03 09:32:17;;;;;;;6.25;5.75;;;26.40;99.90;;;;;;4990454;28;20204;-75
2022/06/03 09:34:47;;;;;;;6.47;5.80;;;26.60;99.90;;;;;;4985798;28;20626;-74
2022/06/03 09:37:20;;;;;;;5.80;5.30;;;26.60;99.90;;;;;;4988438;28;20201;-73
2022/06/03 09:39:50;;;;;;;6.05;5.55;;;26.60;99.90;;;;;;4987860;28;20311;-74
2022/06/03 09:42:19;;;;;;;6.65;6.05;;;26.70;99.90;;;;;;4994484;28;20576;-73
2022/06/03 09:44:49;;;;;;;7.28;6.57;;;26.60;99.90;;;;;;4992982;28;20225;-75
2022/06/03 09:47:19;;;;;;;7.72;7.03;;;26.60;99.90;;;;;;4996229;28;20205;-74
2022/06/03 09:49:49;;;;;;;6.85;6.25;;;26.40;99.90;;;;;;4998000;28;20227;-74
2022/06/03 09:52:20;;;;;;;7.90;6.72;;;26.20;99.90;;;;;;4993000;28;20208;-74
2022/06/03 09:54:48;;;;;;;8.05;6.72;;;26.10;99.90;;;;;;4999042;28;20232;-75
2022/06/03 09:57:22;;;;;;;6.00;5.50;;;26.30;99.90;;;;;;5000440;28;20204;-74
2022/06/03 09:59:57;;;;;;;6.35;5.82;;;26.70;99.90;;;;;;5000169;28;20224;-77
2022/06/03 10:02:27;;;;;;;7.93;7.22;;;26.90;99.90;;;;;;5001294;28;20192;-77
2022/06/03 10:04:54;;;;;;;7.35;6.50;;;27.00;99.90;;;;;;5000445;28;20238;-77
2022/06/03 10:07:25;;;;;;;7.47;6.88;;;26.90;99.90;;;;;;4995586;28;20208;-77
2022/06/03 10:12:53;;;;;;;6.70;6.20;;;26.70;99.90;;;;;;4975336;28;20193;-76
2022/06/03 10:15:41;;;;;;;7.85;6.55;;;26.90;99.90;;;;;;4989309;28;20239;-77
2022/06/03 10:18:26;;;;;;;7.50;6.80;;;26.90;99.90;;;;;;4993013;28;20189;-77
2022/06/03 10:20:56;;;;;;;7.10;6.40;;;26.70;99.90;;;;;;4991526;28;20539;-77
2022/06/03 10:23:27;;;;;;;6.43;5.82;;;26.50;99.90;;;;;;4990842;28;20221;-76
2022/06/03 10:25:59;;;;;;;7.93;6.95;;;26.40;99.90;;;;;;4985985;28;20224;-76
2022/06/03 10:28:34;;;;;;;6.63;6.03;;;26.20;99.90;;;;;;4994826;28;20208;-76
2022/06/03 10:31:05;;;;;;;6.68;6.10;;;26.10;99.90;;;;;;4997149;28;20228;-76
2022/06/03 10:33:34;;;;;;;6.82;6.15;;;26.20;99.90;;;;;;4999396;28;20220;-76
2022/06/03 10:36:04;;;;;;;6.63;5.95;;;26.10;99.90;;;;;;5000432;28;20216;-76
2022/06/03 10:38:33;;;;;;;7.88;7.18;;;26.20;99.90;;;;;;4999159;28;20192;-77
2022/06/03 10:41:06;;;;;;;6.47;5.88;;;26.00;99.90;;;;;;5000977;28;20232;-76
2022/06/03 10:43:36;;;;;;;6.45;5.95;;;25.90;99.90;;;;;;4997434;28;20324;-76
2022/06/03 10:46:15;;;;;;;6.80;6.20;;;26.00;99.90;;;;;;4993503;28;20222;-75
2022/06/03 10:48:44;;;;;;;6.93;6.32;;;25.90;99.90;;;;;;4996368;28;20417;-76
2022/06/03 10:51:16;;;;;;;5.97;5.57;;;25.70;99.90;;;;;;5001222;28;20200;-75
2022/06/03 11:02:15;;;;;;;6.78;6.18;;;25.50;99.90;;;;;;4998978;28;20252;-76
2022/06/03 11:04:43;;;;;;;7.28;6.57;;;25.40;99.90;;;;;;5004785;28;20266;-76
2022/06/03 11:07:25;;;;;;;7.13;6.53;;;25.30;99.90;;;;;;4996980;28;20196;-76
2022/06/03 11:09:55;;;;;;;9.20;7.40;;;25.10;99.90;;;;;;4997962;28;20434;-76
2022/06/03 11:12:26;;;;;;;6.88;6.28;;;24.90;99.90;;;;;;5001732;28;20690;-75
2022/06/03 11:14:53;;;;;;;6.53;6.03;;;24.90;99.90;;;;;;4998525;28;20246;-74
2022/06/03 11:17:22;;;;;;;5.20;4.90;;;24.90;99.90;;;;;;4993954;28;20204;-77
2022/06/03 11:19:53;;;;;;;5.75;5.28;;;25.00;99.90;;;;;;4991502;28;20235;-76
2022/06/03 11:22:32;;;;;;;6.07;5.65;;;25.10;99.90;;;;;;5000389;28;20213;-77
2022/06/03 11:25:11;;;;;;;6.15;5.65;;;25.20;99.90;;;;;;4997453;28;20250;-77
2022/06/03 11:27:45;;;;;;;5.55;5.05;;;25.20;99.90;;;;;;4998042;28;20196;-77
2022/06/03 11:30:17;;;;;;;6.03;5.53;;;25.30;99.90;;;;;;5000969;28;20220;-77
2022/06/03 11:32:48;;;;;;;6.85;6.28;;;25.30;99.90;;;;;;4999581;28;20196;-76
2022/06/03 11:35:33;;;;;;;6.10;5.60;;;25.20;99.90;;;;;;4990604;28;20240;-74
2022/06/03 11:38:06;;;;;;;5.93;5.35;;;25.20;99.90;;;;;;4995004;28;20219;-75
2022/06/03 11:40:38;;;;;;;5.35;4.95;;;25.20;99.90;;;;;;4998947;28;20266;-78
2022/06/03 11:43:11;;;;;;;5.15;4.75;;;25.30;99.90;;;;;;5010314;28;20304;-76
2022/06/03 11:45:43;;;;;;;5.82;5.13;;;25.40;99.90;;;;;;4996783;28;20216;-75
2022/06/03 11:48:19;;;;;;;6.40;5.75;;;25.40;99.90;;;;;;5001358;28;20193;-77
2022/06/03 11:50:47;;;;;;;6.05;5.50;;;25.40;99.90;;;;;;4998118;28;21282;-77
2022/06/03 11:53:16;;;;;;;5.80;5.35;;;25.30;99.90;;;;;;5000763;28;20464;-77
2022/06/03 11:55:43;;;;;;;6.20;5.68;;;25.10;99.90;;;;;;4999411;28;20233;-76
2022/06/03 11:58:16;;;;;;;7.40;6.78;;;25.10;99.90;;;;;;5005213;28;20591;-76
2022/06/03 12:00:47;;;;;;;6.50;6.00;;;25.00;99.90;;;;;;5006174;28;20319;-77
2022/06/03 12:03:35;;;;;;;6.68;5.97;;;24.90;99.90;;;;;;5003279;28;20225;-77
2022/06/03 12:06:08;;;;;;;6.65;6.05;;;25.00;99.90;;;;;;5005383;28;20223;-76
2022/06/03 12:08:47;;;;;;;6.20;5.60;;;25.00;99.90;;;;;;5008701;28;20254;-77
2022/06/03 12:14:26;;;;;;;6.22;5.65;;;25.00;99.90;;;;;;5000538;28;20315;-76
2022/06/03 12:17:26;;;;;;;7.18;6.38;;;25.10;99.90;;;;;;5009723;28;20201;-80
2022/06/03 12:19:54;;;;;;;15.13;8.40;;;25.00;99.90;;;;;;4995743;28;20274;-77
2022/06/03 12:26:27;;;;;;;9.82;8.73;;;25.00;99.90;;;;;;4946099;28;20221;-76
2022/06/03 12:28:59;;;;;;;10.20;8.30;;;24.90;99.90;;;;;;4979331;28;20775;-77
2022/06/03 12:31:36;;;;;;;13.88;9.27;;;24.80;99.90;;;;;;5009106;28;20228;-77
2022/06/03 12:34:20;;;;;;;12.73;8.30;;;24.80;99.90;;;;;;5019987;28;20315;-76
2022/06/03 12:36:54;;;;;;;8.18;7.32;;;24.80;99.90;;;;;;4998868;28;20192;-78
2022/06/03 12:39:26;;;;;;;8.50;7.68;;;24.70;99.90;;;;;;4993380;28;20197;-78
2022/06/03 12:42:33;;;;;;;8.43;7.53;;;24.60;99.90;;;;;;5000735;28;20552;-77
2022/06/03 12:45:29;;;;;;;9.45;7.97;;;24.60;99.90;;;;;;4998351;28;20227;-76
2022/06/03 12:47:56;;;;;;;6.70;6.07;;;24.60;99.90;;;;;;4997145;28;20208;-76
2022/06/03 12:50:55;;;;;;;5.75;5.25;;;24.60;99.90;;;;;;4994762;28;20270;-75
2022/06/03 12:53:32;;;;;;;6.10;5.53;;;24.60;99.90;;;;;;4992662;28;20243;-77
2022/06/03 12:56:02;;;;;;;6.47;5.80;;;24.60;99.90;;;;;;5000418;28;20232;-77
2022/06/03 12:58:46;;;;;;;8.07;7.28;;;24.50;99.90;;;;;;4998498;28;20287;-78
2022/06/03 13:01:34;;;;;;;8.85;8.05;;;24.40;99.90;;;;;;4999419;28;20216;-76
2022/06/03 13:04:36;;;;;;;7.95;7.25;;;24.20;99.90;;;;;;5001422;28;20285;-78
2022/06/03 13:07:39;;;;;;;6.78;6.07;;;24.00;99.90;;;;;;4995039;28;20694;-77
2022/06/03 13:10:29;;;;;;;6.53;5.93;;;24.00;99.90;;;;;;4995440;28;20196;-77
2022/06/03 13:13:18;;;;;;;7.20;6.60;;;24.00;99.90;;;;;;4966607;28;20231;-77
2022/06/03 13:15:48;;;;;;;6.60;6.07;;;23.90;99.90;;;;;;4997347;28;20252;-75
2022/06/03 13:18:35;;;;;;;5.72;5.30;;;23.90;99.90;;;;;;4996611;28;20207;-77
2022/06/03 13:21:24;;;;;;;6.35;5.78;;;24.00;99.90;;;;;;4997162;28;20211;-77
2022/06/03 13:24:22;;;;;;;9.07;6.75;;;24.10;99.90;;;;;;4989452;28;20229;-77
2022/06/03 13:27:08;;;;;;;6.88;6.18;;;24.20;99.90;;;;;;5010952;28;20220;-77
2022/06/03 13:30:12;;;;;;;6.55;5.93;;;24.10;99.90;;;;;;5001155;28;20205;-76
2022/06/03 13:32:58;;;;;;;5.40;4.90;;;24.20;99.90;;;;;;4999060;28;20244;-76
2022/06/03 13:35:30;;;;;;;7.10;6.57;;;24.20;99.90;;;;;;4997852;28;20859;-77
2022/06/03 13:38:27;;;;;;;9.68;7.68;;;24.20;99.90;;;;;;4995448;28;20225;-76
2022/06/03 13:44:06;;;;;;;8.13;7.25;;;24.10;99.90;;;;;;5000478;28;20274;-78
2022/06/03 13:46:36;;;;;;;7.30;6.60;;;24.00;99.90;;;;;;4997042;28;20240;-76
2022/06/03 13:49:15;;;;;;;7.15;6.55;;;23.90;99.90;;;;;;4998723;28;20576;-78
2022/06/03 13:52:04;;;;;;;5.95;5.45;;;23.90;99.90;;;;;;4996678;28;20287;-77
2022/06/03 13:54:50;;;;;;;6.65;6.07;;;23.90;99.90;;;;;;4996844;28;20231;-77
2022/06/03 13:57:29;;;;;;;10.13;8.93;;;23.80;99.90;;;;;;4993656;28;20217;-77
2022/06/03 14:00:18;;;;;;;7.70;7.00;;;23.80;99.90;;;;;;4996607;28;20203;-76
2022/06/03 14:02:48;;;;;;;7.07;6.38;;;23.60;99.90;;;;;;4996569;28;20231;-77
2022/06/03 14:05:28;;;;;;;6.20;5.70;;;23.60;99.90;;;;;;4993416;28;20189;-75
2022/06/03 14:08:01;;;;;;;9.20;7.93;;;23.50;99.90;;;;;;4993558;28;20724;-76
2022/06/03 14:10:42;;;;;;;10.50;8.65;;;23.40;99.90;;;;;;5001798;28;20231;-77
2022/06/03 14:13:19;;;;;;;11.07;7.65;;;23.30;99.90;;;;;;4992578;28;20228;-78
2022/06/03 14:15:54;;;;;;;7.95;7.20;;;23.20;99.90;;;;;;4996361;28;20386;-77
2022/06/03 14:18:51;;;;;;;9.63;8.77;;;23.10;99.90;;;;;;5007497;28;20230;-78
2022/06/03 14:21:25;;;;;;;7.63;7.03;;;23.00;99.90;;;;;;4988093;28;20228;-77
2022/06/03 14:23:58;;;;;;;9.27;8.05;;;22.90;99.90;;;;;;4994449;28;20268;-78
2022/06/03 14:26:28;;;;;;;9.82;8.82;;;22.70;99.90;;;;;;4986285;28;20225;-77
2022/06/03 14:29:00;;;;;;;11.05;8.18;;;22.60;99.90;;;;;;4997223;28;20223;-76
2022/06/03 14:31:34;;;;;;;8.88;8.05;;;22.30;99.90;;;;;;4992934;28;20224;-76
2022/06/03 14:34:12;;;;;;;8.13;7.43;;;22.20;99.90;;;;;;4989614;28;20307;-77
2022/06/03 14:36:40;;;;;;;8.93;7.28;;;22.10;99.90;;;;;;4995980;28;20250;-75
2022/06/03 14:39:13;;;;;;;7.07;6.47;;;22.00;99.90;;;;;;4994812;28;20939;-76
2022/06/03 14:41:45;;;;;;;7.95;7.15;;;22.00;99.90;;;;;;4997514;28;20217;-75
2022/06/03 14:44:16;;;;;;;7.10;6.50;;;21.90;99.90;;;;;;4993466;28;20259;-76
2022/06/03 14:46:50;;;;;;;7.93;6.07;;;21.90;99.90;;;;;;4991418;28;20844;-76